createdAt,value
2018-08-16T00:00:28.107Z,99.00
2018-08-16T00:02:56.922Z,98.90
2018-08-16T00:05:25.573Z,98.70
2018-08-16T00:07:54.016Z,98.80
2018-08-16T00:10:22.432Z,98.10
2018-08-16T00:12:51.236Z,98.40
2018-08-16T00:15:21.824Z,98.60
2018-08-16T00:17:50.375Z,98.70
2018-08-16T00:20:18.848Z,98.80
2018-08-16T00:22:47.723Z,98.70
2018-08-16T00:25:17.267Z,98.60
2018-08-16T00:27:47.203Z,98.40
2018-08-16T00:30:17.184Z,98.00
2018-08-16T00:32:46.043Z,98.30
2018-08-16T00:35:14.493Z,98.30
2018-08-16T00:37:43.869Z,98.30
2018-08-16T00:40:15.059Z,98.20
2018-08-16T00:42:43.534Z,98.20
2018-08-16T00:45:12.431Z,98.40
2018-08-16T00:47:40.851Z,98.10
2018-08-16T00:50:11.456Z,97.90
2018-08-16T00:52:39.922Z,97.90
2018-08-16T00:55:09.764Z,98.10
2018-08-16T00:57:38.627Z,98.30
2018-08-16T01:00:09.790Z,98.80
2018-08-16T01:02:38.239Z,98.40
2018-08-16T01:05:07.193Z,98.60
2018-08-16T01:07:35.700Z,98.80
2018-08-16T01:10:05.044Z,98.80
2018-08-16T01:12:33.476Z,98.50
2018-08-16T01:15:01.951Z,98.40
2018-08-16T01:17:30.369Z,98.40
2018-08-16T01:19:58.825Z,98.30
2018-08-16T01:22:27.254Z,98.60
2018-08-16T01:24:55.725Z,98.50
2018-08-16T01:27:24.171Z,98.80
2018-08-16T01:29:52.609Z,99.00
2018-08-16T01:32:21.753Z,98.90
2018-08-16T01:34:50.290Z,98.80
2018-08-16T01:37:18.730Z,98.90
2018-08-16T01:39:47.198Z,98.70
2018-08-16T01:42:16.148Z,98.90
2018-08-16T01:44:44.746Z,98.90
2018-08-16T01:47:13.172Z,98.80
2018-08-16T01:49:41.608Z,99.30
2018-08-16T01:52:10.033Z,99.40
2018-08-16T01:54:38.500Z,99.50
2018-08-16T01:57:07.017Z,99.40
2018-08-16T01:59:35.450Z,99.20
2018-08-16T02:02:03.899Z,99.00
2018-08-16T02:04:32.357Z,99.00
2018-08-16T02:07:01.853Z,98.80
2018-08-16T02:09:30.311Z,98.80
2018-08-16T02:11:59.596Z,98.80
2018-08-16T02:14:28.647Z,98.80
2018-08-16T02:16:57.073Z,98.80
2018-08-16T02:19:25.518Z,99.20
2018-08-16T02:21:53.960Z,98.90
2018-08-16T02:24:23.625Z,99.10
2018-08-16T02:26:52.105Z,98.90
2018-08-16T02:29:20.569Z,98.80
2018-08-16T02:31:48.984Z,98.60
2018-08-16T02:34:17.438Z,98.90
2018-08-16T02:36:47.669Z,98.70
2018-08-16T02:39:16.123Z,99.20
2018-08-16T02:41:44.549Z,99.60
2018-08-16T02:44:13.005Z,99.60
2018-08-16T02:46:41.450Z,99.50
2018-08-16T02:49:09.894Z,99.00
2018-08-16T02:51:38.314Z,99.00
2018-08-16T02:54:06.846Z,99.20
2018-08-16T02:56:35.276Z,99.30
2018-08-16T02:59:03.702Z,99.40
2018-08-16T03:01:32.181Z,99.80
2018-08-16T03:04:00.610Z,99.80
2018-08-16T03:06:29.044Z,99.90
2018-08-16T03:08:57.468Z,99.90
2018-08-16T03:11:25.918Z,99.90
2018-08-16T03:13:55.048Z,99.90
2018-08-16T03:16:23.512Z,99.90
2018-08-16T03:18:51.968Z,99.80
2018-08-16T03:21:20.405Z,99.90
2018-08-16T03:23:48.829Z,99.90
2018-08-16T03:26:17.261Z,99.90
2018-08-16T03:28:45.738Z,99.90
2018-08-16T03:31:14.217Z,99.90
2018-08-16T03:33:42.904Z,99.90
2018-08-16T03:36:12.134Z,99.90
2018-08-16T03:38:40.577Z,99.90
2018-08-16T03:41:09.033Z,99.90
2018-08-16T03:43:37.583Z,99.90
2018-08-16T03:46:06.057Z,99.90
2018-08-16T03:48:34.509Z,99.90
2018-08-16T03:51:03.841Z,99.90
2018-08-16T03:53:32.752Z,99.90
2018-08-16T03:56:01.230Z,99.90
2018-08-16T03:58:31.134Z,99.90
2018-08-16T04:00:59.569Z,99.90
2018-08-16T04:03:29.680Z,99.90
2018-08-16T04:05:58.814Z,99.90
2018-08-16T04:08:27.260Z,99.90
2018-08-16T04:10:55.740Z,99.90
2018-08-16T04:13:25.915Z,99.90
2018-08-16T04:15:54.901Z,99.90
2018-08-16T04:18:23.360Z,99.90
2018-08-16T04:20:51.807Z,99.90
2018-08-16T04:23:20.296Z,99.90
2018-08-16T04:25:48.802Z,99.90
2018-08-16T04:28:17.212Z,99.90
2018-08-16T04:30:45.664Z,99.90
2018-08-16T04:33:19.610Z,99.90
2018-08-16T04:35:50.570Z,99.90
2018-08-16T04:38:19.735Z,99.90
2018-08-16T04:40:48.786Z,99.90
2018-08-16T04:43:17.306Z,99.90
2018-08-16T04:45:46.045Z,99.90
2018-08-16T04:48:14.724Z,99.90
2018-08-16T04:50:43.220Z,99.90
2018-08-16T04:53:11.913Z,99.90
2018-08-16T04:55:43.589Z,99.90
2018-08-16T04:58:12.307Z,99.90
2018-08-16T05:00:40.940Z,99.80
2018-08-16T05:03:09.668Z,99.60
2018-08-16T05:05:38.183Z,99.80
2018-08-16T05:08:06.704Z,99.90
2018-08-16T05:10:35.155Z,99.60
2018-08-16T05:13:03.581Z,99.30
2018-08-16T05:15:32.000Z,99.20
2018-08-16T05:18:00.469Z,98.70
2018-08-16T05:20:28.902Z,98.90
2018-08-16T05:22:57.438Z,98.40
2018-08-16T05:25:26.720Z,98.00
2018-08-16T05:27:55.406Z,98.20
2018-08-16T05:30:24.877Z,97.60
2018-08-16T05:32:53.360Z,97.50
2018-08-16T05:35:21.801Z,97.50
2018-08-16T05:37:50.333Z,97.20
2018-08-16T05:40:18.852Z,96.70
2018-08-16T05:42:47.283Z,96.90
2018-08-16T05:45:15.785Z,96.70
2018-08-16T05:47:44.269Z,96.80
2018-08-16T05:50:13.240Z,96.30
2018-08-16T05:52:42.468Z,96.50
2018-08-16T05:55:10.919Z,96.20
2018-08-16T05:57:39.775Z,95.50
2018-08-16T06:00:11.582Z,95.60
2018-08-16T06:02:40.109Z,95.40
2018-08-16T06:05:09.656Z,95.20
2018-08-16T06:07:38.149Z,95.00
2018-08-16T06:10:07.872Z,94.80
2018-08-16T06:12:36.313Z,95.10
2018-08-16T06:15:05.788Z,94.20
2018-08-16T06:17:35.564Z,93.80
2018-08-16T06:20:05.870Z,93.50
2018-08-16T06:22:34.341Z,93.50
2018-08-16T06:25:02.838Z,91.60
2018-08-16T06:27:31.469Z,90.70
2018-08-16T06:29:59.878Z,89.80
2018-08-16T06:32:28.305Z,89.00
2018-08-16T06:34:56.737Z,88.70
2018-08-16T06:37:25.984Z,88.40
2018-08-16T06:39:54.886Z,87.90
2018-08-16T06:42:23.336Z,88.80
2018-08-16T06:44:51.785Z,88.00
2018-08-16T06:47:20.250Z,88.80
2018-08-16T06:49:48.705Z,88.40
2018-08-16T06:52:17.181Z,89.90
2018-08-16T06:54:45.613Z,89.40
2018-08-16T06:57:14.072Z,88.80
2018-08-16T06:59:42.498Z,88.70
2018-08-16T07:02:11.021Z,88.90
2018-08-16T07:04:39.440Z,89.20
2018-08-16T07:07:08.197Z,89.70
2018-08-16T07:09:36.693Z,89.90
2018-08-16T07:12:05.242Z,90.50
2018-08-16T07:14:33.667Z,89.40
2018-08-16T07:17:02.207Z,89.80
2018-08-16T07:19:30.645Z,89.70
2018-08-16T07:21:59.130Z,88.60
2018-08-16T07:24:28.531Z,87.90
2018-08-16T07:26:56.879Z,86.20
2018-08-16T07:29:25.313Z,84.20
2018-08-16T07:31:53.803Z,83.10
2018-08-16T07:34:22.271Z,81.00
2018-08-16T07:36:50.717Z,80.40
2018-08-16T07:39:19.189Z,79.60
2018-08-16T07:41:47.605Z,78.20
2018-08-16T07:44:16.114Z,78.50
2018-08-16T07:46:44.541Z,77.90
2018-08-16T07:49:13.006Z,74.80
2018-08-16T07:51:41.653Z,73.90
2018-08-16T07:54:10.014Z,73.30
2018-08-16T07:56:38.547Z,71.70
2018-08-16T08:01:35.163Z,68.10
2018-08-16T08:04:03.628Z,67.30
2018-08-16T08:06:32.071Z,66.00
2018-08-16T08:09:00.736Z,65.50
2018-08-16T08:11:29.073Z,63.20
2018-08-16T08:13:57.798Z,62.20
2018-08-16T08:16:26.283Z,61.20
2018-08-16T08:18:54.738Z,62.20
2018-08-16T08:21:23.211Z,62.20
2018-08-16T08:23:51.659Z,62.80
2018-08-16T08:26:20.169Z,65.70
2018-08-16T08:28:48.627Z,63.00
2018-08-16T08:31:17.047Z,64.60
2018-08-16T08:33:45.519Z,65.20
2018-08-16T08:36:25.225Z,65.80
2018-08-16T08:38:53.703Z,67.50
2018-08-16T08:41:22.145Z,68.40
2018-08-16T08:44:21.171Z,68.70
2018-08-16T08:46:54.124Z,68.20
2018-08-16T08:49:22.828Z,69.20
2018-08-16T08:51:52.212Z,68.80
2018-08-16T08:54:50.682Z,67.70
2018-08-16T08:57:31.011Z,70.10
2018-08-16T08:59:59.537Z,67.10
2018-08-16T09:02:27.986Z,67.70
2018-08-16T09:04:56.452Z,65.50
2018-08-16T09:07:25.305Z,65.90
2018-08-16T09:11:23.255Z,65.80
2018-08-16T09:14:05.502Z,67.10
2018-08-16T09:16:37.742Z,66.60
2018-08-16T09:19:06.971Z,66.30
2018-08-16T09:21:35.654Z,66.50
2018-08-16T09:24:04.153Z,67.10
2018-08-16T09:26:38.014Z,64.70
2018-08-16T09:30:38.855Z,65.40
2018-08-16T09:33:18.650Z,65.80
2018-08-16T09:35:47.097Z,62.20
2018-08-16T09:38:15.514Z,62.70
2018-08-16T09:40:43.946Z,61.90
2018-08-16T09:43:12.487Z,62.90
2018-08-16T09:46:59.137Z,62.60
2018-08-16T09:49:29.877Z,61.70
2018-08-16T09:51:58.325Z,61.40
2018-08-16T09:54:27.205Z,59.40
2018-08-16T09:56:56.576Z,59.20
2018-08-16T09:59:25.138Z,56.50
2018-08-16T10:06:50.982Z,67.90
2018-08-16T10:09:21.851Z,65.30
2018-08-16T10:11:50.418Z,62.30
2018-08-16T10:14:19.252Z,48.50
2018-08-16T10:16:47.703Z,49.40
2018-08-16T10:19:16.177Z,50.00
2018-08-16T10:21:44.663Z,50.60
2018-08-16T10:24:13.194Z,50.90
2018-08-16T10:26:41.653Z,50.40
2018-08-16T10:29:10.657Z,49.50
2018-08-16T10:31:39.262Z,49.30
2018-08-16T10:34:08.524Z,47.80
2018-08-16T10:36:36.971Z,45.80
2018-08-16T10:39:15.118Z,46.90
2018-08-16T10:41:43.807Z,47.90
2018-08-16T10:44:13.009Z,49.60
2018-08-16T10:46:41.577Z,51.50
2018-08-16T10:49:10.401Z,52.90
2018-08-16T10:51:38.882Z,53.70
2018-08-16T10:54:07.349Z,54.80
2018-08-16T10:56:35.897Z,55.80
2018-08-16T10:59:04.429Z,54.80
2018-08-16T11:01:32.889Z,55.60
2018-08-16T11:04:01.320Z,56.60
2018-08-16T11:06:29.747Z,56.40
2018-08-16T11:08:58.198Z,56.80
2018-08-16T11:11:26.751Z,56.60
2018-08-16T11:13:55.191Z,57.20
2018-08-16T11:16:23.764Z,57.30
2018-08-16T11:18:52.281Z,56.70
2018-08-16T11:21:20.784Z,56.50
2018-08-16T11:23:49.245Z,57.30
2018-08-16T11:26:17.669Z,57.00
2018-08-16T11:28:46.118Z,57.60
2018-08-16T11:31:14.548Z,58.10
2018-08-16T11:33:42.968Z,57.40
2018-08-16T11:36:11.413Z,58.20
2018-08-16T11:38:39.906Z,57.90
2018-08-16T11:41:08.333Z,56.70
2018-08-16T11:43:36.789Z,56.70
2018-08-16T11:46:05.480Z,57.40
2018-08-16T11:48:33.946Z,57.10
2018-08-16T11:51:02.384Z,57.60
2018-08-16T11:53:30.845Z,57.50
2018-08-16T11:55:59.268Z,57.50
2018-08-16T11:58:27.742Z,57.90
2018-08-16T12:00:56.301Z,57.20
2018-08-16T12:03:24.762Z,57.30
2018-08-16T12:05:53.248Z,57.00
2018-08-16T12:08:21.725Z,57.80
2018-08-16T12:10:50.157Z,94.50
2018-08-16T12:13:18.626Z,55.60
2018-08-16T12:15:47.144Z,55.60
2018-08-16T12:18:15.631Z,57.00
2018-08-16T12:20:44.102Z,57.80
2018-08-16T12:23:12.526Z,57.90
2018-08-16T12:25:41.017Z,57.40
2018-08-16T12:28:09.492Z,96.30
2018-08-16T12:30:38.052Z,56.70
2018-08-16T12:33:06.530Z,57.90
2018-08-16T12:35:34.973Z,97.10
2018-08-16T12:38:03.416Z,96.60
2018-08-16T12:40:32.015Z,96.20
2018-08-16T12:43:00.437Z,57.50
2018-08-16T12:45:28.964Z,56.70
2018-08-16T12:47:57.389Z,57.10
2018-08-16T12:50:25.861Z,56.40
2018-08-16T12:52:54.421Z,59.90
2018-08-16T12:55:22.884Z,57.70
2018-08-16T12:57:51.323Z,55.80
2018-08-16T13:00:20.159Z,55.90
2018-08-16T13:02:49.293Z,56.20
2018-08-16T13:05:17.995Z,55.80
2018-08-16T13:07:46.418Z,55.80
2018-08-16T13:10:15.481Z,55.70
2018-08-16T13:12:44.121Z,56.20
2018-08-16T13:15:12.587Z,56.00
2018-08-16T13:17:41.201Z,55.90
2018-08-16T13:20:10.628Z,55.00
2018-08-16T13:22:39.299Z,55.30
2018-08-16T13:25:10.074Z,56.30
2018-08-16T13:27:38.735Z,56.00
2018-08-16T13:30:08.544Z,55.50
2018-08-16T13:32:37.312Z,56.50
2018-08-16T13:35:05.794Z,56.70
2018-08-16T13:37:34.261Z,56.00
2018-08-16T13:40:02.777Z,56.00
2018-08-16T13:42:31.907Z,55.90
2018-08-16T13:45:00.302Z,56.40
2018-08-16T13:47:29.596Z,56.40
2018-08-16T13:49:58.400Z,56.80
2018-08-16T13:52:26.857Z,56.60
2018-08-16T13:54:55.329Z,56.00
2018-08-16T13:57:23.884Z,56.00
2018-08-16T13:59:52.341Z,53.50
2018-08-16T14:02:20.868Z,54.30
2018-08-16T14:04:49.297Z,55.10
2018-08-16T14:07:17.741Z,55.40
2018-08-16T14:09:46.193Z,54.90
2018-08-16T14:12:15.447Z,54.40
2018-08-16T14:14:44.453Z,54.00
2018-08-16T14:17:12.921Z,53.60
2018-08-16T14:19:41.341Z,53.30
2018-08-16T14:22:09.862Z,53.60
2018-08-16T14:24:38.338Z,53.40
2018-08-16T14:27:06.811Z,52.20
2018-08-16T14:29:35.234Z,53.10
2018-08-16T14:32:03.749Z,52.70
2018-08-16T14:34:32.178Z,53.40
2018-08-16T14:37:00.924Z,53.00
2018-08-16T14:39:29.666Z,52.50
2018-08-16T14:41:58.111Z,53.20
2018-08-16T14:44:26.529Z,53.80
2018-08-16T14:46:58.023Z,52.90
2018-08-16T14:49:27.624Z,52.90
2018-08-16T14:51:56.533Z,52.20
2018-08-16T14:54:24.995Z,52.40
2018-08-16T14:56:53.500Z,52.50
2018-08-16T14:59:21.922Z,53.00
2018-08-16T15:01:50.429Z,52.80
2018-08-16T15:04:18.865Z,51.80
2018-08-16T15:06:47.945Z,51.60
2018-08-16T15:09:17.394Z,52.70
2018-08-16T15:11:45.829Z,52.00
2018-08-16T15:14:14.266Z,52.90
2018-08-16T15:16:43.272Z,53.50
2018-08-16T15:19:11.689Z,53.40
2018-08-16T15:21:40.157Z,53.30
2018-08-16T15:24:10.468Z,52.10
2018-08-16T15:26:39.004Z,52.10
2018-08-16T15:29:07.417Z,52.70
2018-08-16T15:31:35.917Z,52.70
2018-08-16T15:34:04.429Z,52.80
2018-08-16T15:36:32.907Z,52.50
2018-08-16T15:39:01.364Z,52.20
2018-08-16T15:41:29.841Z,52.90
2018-08-16T15:43:58.265Z,52.80
2018-08-16T15:46:26.730Z,51.80
2018-08-16T15:48:55.165Z,52.10
2018-08-16T15:51:23.613Z,50.40
2018-08-16T15:53:52.067Z,51.90
2018-08-16T15:56:20.554Z,52.40
2018-08-16T15:58:48.969Z,51.90
2018-08-16T16:01:17.606Z,53.20
2018-08-16T16:03:46.065Z,52.20
2018-08-16T16:06:14.589Z,52.00
2018-08-16T16:08:42.964Z,52.20
2018-08-16T16:11:11.376Z,51.30
2018-08-16T16:13:39.843Z,51.60
2018-08-16T16:16:08.416Z,52.30
2018-08-16T16:18:36.953Z,52.50
2018-08-16T16:21:05.385Z,51.80
2018-08-16T16:23:33.875Z,52.10
2018-08-16T16:26:02.299Z,51.50
2018-08-16T16:28:30.820Z,51.60
2018-08-16T16:30:59.292Z,52.70
2018-08-16T16:33:27.815Z,52.50
2018-08-16T16:35:56.339Z,51.50
2018-08-16T16:38:24.795Z,52.30
2018-08-16T16:40:53.271Z,52.60
2018-08-16T16:43:21.743Z,52.10
2018-08-16T16:45:50.189Z,53.20
2018-08-16T16:48:18.644Z,53.00
2018-08-16T16:50:47.069Z,53.10
2018-08-16T16:53:15.686Z,52.10
2018-08-16T16:55:44.142Z,52.60
2018-08-16T16:58:12.605Z,52.60
2018-08-16T17:00:41.041Z,52.50
2018-08-16T17:03:10.984Z,52.90
2018-08-16T17:05:39.399Z,53.50
2018-08-16T17:08:07.848Z,52.90
2018-08-16T17:10:37.936Z,53.20
2018-08-16T17:13:06.401Z,53.90
2018-08-16T17:15:34.818Z,53.70
2018-08-16T17:18:03.343Z,53.50
2018-08-16T17:20:31.765Z,54.50
2018-08-16T17:23:00.204Z,55.50
2018-08-16T17:25:28.656Z,57.50
2018-08-16T17:27:57.152Z,58.80
2018-08-16T17:30:25.573Z,58.80
2018-08-16T17:32:54.049Z,62.30
2018-08-16T17:35:22.557Z,59.40
2018-08-16T17:37:51.005Z,59.00
2018-08-16T17:40:19.421Z,58.90
2018-08-16T17:42:47.921Z,59.20
2018-08-16T17:45:16.345Z,74.10
2018-08-16T17:47:44.817Z,59.40
2018-08-16T17:50:13.813Z,95.10
2018-08-16T17:52:42.472Z,95.30
2018-08-16T18:00:10.275Z,98.70
2018-08-16T18:02:38.791Z,87.30
2018-08-16T18:05:07.220Z,63.40
2018-08-16T18:07:35.699Z,63.70
2018-08-16T18:10:05.373Z,63.90
2018-08-16T18:12:34.205Z,64.00
2018-08-16T18:15:04.281Z,65.00
2018-08-16T18:17:33.035Z,65.70
2018-08-16T18:20:01.497Z,66.20
2018-08-16T18:22:29.986Z,66.90
2018-08-16T18:24:58.449Z,67.40
2018-08-16T18:27:26.913Z,91.60
2018-08-16T18:29:55.363Z,67.80
2018-08-16T18:32:25.781Z,67.80
2018-08-16T18:34:54.365Z,68.00
2018-08-16T18:37:22.796Z,68.60
2018-08-16T18:39:51.337Z,68.90
2018-08-16T18:42:19.751Z,69.30
2018-08-16T18:44:48.287Z,69.90
2018-08-16T18:47:16.679Z,71.20
2018-08-16T18:49:45.168Z,71.00
2018-08-16T18:52:13.609Z,71.90
2018-08-16T18:54:42.071Z,73.10
2018-08-16T18:57:10.505Z,72.80
2018-08-16T18:59:38.984Z,73.20
2018-08-16T19:02:07.551Z,73.60
2018-08-16T19:04:36.273Z,73.50
2018-08-16T19:07:04.745Z,73.70
2018-08-16T19:09:35.154Z,73.80
2018-08-16T19:12:03.757Z,74.40
2018-08-16T19:14:32.315Z,74.50
2018-08-16T19:17:00.890Z,74.30
2018-08-16T19:19:29.342Z,74.20
2018-08-16T19:21:57.794Z,74.20
2018-08-16T19:24:26.563Z,74.50
2018-08-16T19:26:56.060Z,75.10
2018-08-16T19:29:28.466Z,76.20
2018-08-16T19:32:04.483Z,75.60
2018-08-16T19:34:34.972Z,75.30
2018-08-16T19:37:03.712Z,75.30
2018-08-16T19:39:32.828Z,75.20
2018-08-16T19:42:01.781Z,75.70
2018-08-16T19:44:30.466Z,76.00
2018-08-16T19:46:59.186Z,76.30
2018-08-16T19:49:28.019Z,76.40
2018-08-16T19:51:57.083Z,76.70
2018-08-16T19:54:26.019Z,78.10
2018-08-16T19:56:55.046Z,79.20
2018-08-16T19:59:24.144Z,79.40
2018-08-16T20:01:53.256Z,80.50
2018-08-16T20:04:22.217Z,81.40
2018-08-16T20:06:50.991Z,80.70
2018-08-16T20:09:19.746Z,80.30
2018-08-16T20:11:48.572Z,81.00
2018-08-16T20:14:17.198Z,80.80
2018-08-16T20:16:46.254Z,80.80
2018-08-16T20:19:15.355Z,81.80
2018-08-16T20:21:44.116Z,83.10
2018-08-16T20:24:13.258Z,82.60
2018-08-16T20:26:42.133Z,83.30
2018-08-16T20:29:11.055Z,83.60
2018-08-16T20:31:39.722Z,83.70
2018-08-16T20:34:08.684Z,83.50
2018-08-16T20:36:37.457Z,83.30
2018-08-16T20:39:07.863Z,83.60
2018-08-16T20:41:36.820Z,83.90
2018-08-16T20:44:05.783Z,83.80
2018-08-16T20:46:34.960Z,84.10
2018-08-16T20:49:03.547Z,84.60
2018-08-16T20:51:32.281Z,85.10
2018-08-16T20:54:01.313Z,86.00
2018-08-16T20:56:30.002Z,87.00
2018-08-16T20:58:58.880Z,87.60
2018-08-16T21:01:27.451Z,87.60
2018-08-16T21:03:56.071Z,88.30
2018-08-16T21:06:24.738Z,88.30
2018-08-16T21:08:54.024Z,88.00
2018-08-16T21:11:22.649Z,87.60
2018-08-16T21:13:54.437Z,87.70
2018-08-16T21:16:23.097Z,88.00
2018-08-16T21:18:51.829Z,88.40
2018-08-16T21:21:20.322Z,89.00
2018-08-16T21:23:48.952Z,89.00
2018-08-16T21:26:17.552Z,89.50
2018-08-16T21:28:46.115Z,89.90
2018-08-16T21:31:14.593Z,89.70
2018-08-16T21:33:43.105Z,90.10
2018-08-16T21:36:11.705Z,90.20
2018-08-16T21:38:40.121Z,90.30
2018-08-16T21:41:08.588Z,90.20
2018-08-16T21:43:37.082Z,90.10
2018-08-16T21:46:05.650Z,90.50
2018-08-16T21:48:34.463Z,90.70
2018-08-16T21:51:02.899Z,90.90
2018-08-16T21:53:31.394Z,91.10
2018-08-16T21:55:59.840Z,91.00
2018-08-16T21:58:28.283Z,91.00
2018-08-16T22:01:00.976Z,90.50
2018-08-16T22:03:29.600Z,90.90
2018-08-16T22:06:04.963Z,91.30
2018-08-16T22:08:42.627Z,91.50
2018-08-16T22:11:11.500Z,91.80
2018-08-16T22:13:40.119Z,91.90
2018-08-16T22:16:08.599Z,91.70
2018-08-16T22:18:37.520Z,91.90
2018-08-16T22:21:06.005Z,92.00
2018-08-16T22:23:34.441Z,92.00
2018-08-16T22:26:03.005Z,92.00
2018-08-16T22:28:31.488Z,92.00
2018-08-16T22:31:00.416Z,92.20
2018-08-16T22:33:29.223Z,92.60
2018-08-16T22:35:57.784Z,92.60
2018-08-16T22:38:26.467Z,92.70
2018-08-16T22:40:54.974Z,92.70
2018-08-16T22:43:23.491Z,92.60
2018-08-16T22:45:51.984Z,92.80
2018-08-16T22:48:20.427Z,92.90
2018-08-16T22:50:48.871Z,92.60
2018-08-16T22:53:17.332Z,92.80
2018-08-16T22:55:45.796Z,92.80
2018-08-16T22:58:14.256Z,92.80
2018-08-16T23:00:42.723Z,93.00
2018-08-16T23:03:11.272Z,93.20
2018-08-16T23:05:39.700Z,93.40
2018-08-16T23:08:08.277Z,93.50
2018-08-16T23:10:36.750Z,93.40
2018-08-16T23:13:05.259Z,93.50
2018-08-16T23:15:33.802Z,93.50
2018-08-16T23:18:02.276Z,93.50
2018-08-16T23:20:30.875Z,93.10
2018-08-16T23:22:59.364Z,93.00
2018-08-16T23:25:27.869Z,93.20
2018-08-16T23:27:56.336Z,93.30
2018-08-16T23:30:24.818Z,93.40
2018-08-16T23:32:53.301Z,93.60
2018-08-16T23:35:21.897Z,93.60
2018-08-16T23:37:50.432Z,93.80
2018-08-16T23:40:18.860Z,93.90
2018-08-16T23:42:47.414Z,93.90
2018-08-16T23:45:15.969Z,93.80
2018-08-16T23:47:54.614Z,93.90
2018-08-16T23:50:23.151Z,93.90
2018-08-16T23:52:51.608Z,93.60
2018-08-16T23:55:20.106Z,93.80
2018-08-16T23:57:48.628Z,93.80
